Time;durP1;ratioP1;P1;durP2;ratioP2;P2;SDS_P1;SDS_P2;PMS_P1;PMS_P2;Temp;Humidity;BMP_temperature;BMP_pressure;BME280_temperature;BME280_humidity;BME280_pressure;Samples;Min_cycle;Max_cycle;Signal;HPM_P1;HPM_P2
2022/05/17 00:01:57;;;;;;;0.40;0.30;;;14.50;99.90;;;;;;5112169;28;20419;-69
2022/05/17 00:04:22;;;;;;;0.40;0.20;;;14.30;99.90;;;;;;5111408;28;20365;-69
2022/05/17 00:06:48;;;;;;;0.40;0.40;;;14.30;99.90;;;;;;5111858;28;20484;-69
2022/05/17 00:09:16;;;;;;;0.40;0.30;;;14.40;99.90;;;;;;5093636;28;20796;-69
2022/05/17 00:11:44;;;;;;;0.47;0.47;;;14.40;99.90;;;;;;5110630;28;20487;-69
2022/05/17 00:14:11;;;;;;;0.70;0.70;;;14.40;99.90;;;;;;5111826;28;20463;-69
2022/05/17 00:16:37;;;;;;;0.40;0.20;;;14.40;99.90;;;;;;5110405;28;20392;-68
2022/05/17 00:19:03;;;;;;;0.40;0.20;;;14.30;99.90;;;;;;5111779;28;20384;-69
2022/05/17 00:21:28;;;;;;;0.40;0.30;;;14.30;99.90;;;;;;5111276;28;20385;-69
2022/05/17 00:23:54;;;;;;;0.40;0.20;;;14.20;99.90;;;;;;5111896;28;20389;-68
2022/05/17 00:26:21;;;;;;;0.50;0.50;;;14.30;99.90;;;;;;5111226;28;20437;-68
2022/05/17 00:28:47;;;;;;;0.80;0.80;;;14.20;99.90;;;;;;5111126;28;20381;-69
2022/05/17 00:31:12;;;;;;;0.40;0.20;;;14.10;99.90;;;;;;5111887;28;20467;-68
2022/05/17 00:33:38;;;;;;;0.40;0.20;;;14.20;99.90;;;;;;5109868;28;20396;-69
2022/05/17 00:36:05;;;;;;;0.40;0.40;;;14.20;99.90;;;;;;5110987;28;20488;-69
2022/05/17 00:38:31;;;;;;;0.40;0.20;;;14.20;99.90;;;;;;5110477;28;20403;-69
2022/05/17 00:40:57;;;;;;;0.40;0.30;;;14.10;99.90;;;;;;5111722;28;20391;-69
2022/05/17 00:44:42;;;;;;;0.40;0.20;;;14.10;99.90;;;;;;5110413;28;20479;-69
2022/05/17 00:46:17;;;;;;;0.40;0.30;;;14.10;99.90;;;;;;5110929;28;20392;-69
2022/05/17 00:48:43;;;;;;;0.40;0.20;;;14.00;99.90;;;;;;5107180;28;20479;-69
2022/05/17 00:51:10;;;;;;;0.40;0.33;;;14.00;99.90;;;;;;5110478;28;20455;-69
2022/05/17 00:53:37;;;;;;;0.40;0.30;;;14.10;99.90;;;;;;5110168;28;20866;-69
2022/05/17 00:56:12;;;;;;;0.40;0.20;;;13.90;99.90;;;;;;5110252;28;20749;-70
2022/05/17 00:58:42;;;;;;;0.60;0.50;;;14.00;99.90;;;;;;5110464;28;20432;-69
2022/05/17 01:01:11;;;;;;;0.40;0.20;;;14.00;99.90;;;;;;5110914;28;20384;-69
2022/05/17 01:03:50;;;;;;;0.40;0.20;;;14.00;99.90;;;;;;5110542;28;20391;-69
2022/05/17 01:06:17;;;;;;;0.40;0.20;;;14.00;99.90;;;;;;5111297;28;20387;-69
2022/05/17 01:08:42;;;;;;;0.40;0.20;;;14.00;99.90;;;;;;5110219;28;20513;-69
2022/05/17 01:11:08;;;;;;;0.40;0.20;;;13.90;99.90;;;;;;5110820;28;20852;-69
2022/05/17 01:16:19;;;;;;;0.40;0.28;;;14.00;99.90;;;;;;5110831;28;20384;-70
2022/05/17 01:18:45;;;;;;;0.40;0.20;;;14.00;99.90;;;;;;5108711;28;20387;-69
2022/05/17 01:21:12;;;;;;;0.40;0.20;;;13.90;99.90;;;;;;5108119;28;20392;-69
2022/05/17 01:23:38;;;;;;;0.40;0.30;;;13.90;99.90;;;;;;5109905;28;20388;-69
2022/05/17 01:26:05;;;;;;;0.40;0.20;;;13.90;99.90;;;;;;5110634;28;20860;-69
2022/05/17 01:28:35;;;;;;;0.40;0.20;;;13.90;99.90;;;;;;5108445;28;20422;-70
2022/05/17 01:31:04;;;;;;;0.40;0.30;;;13.90;99.90;;;;;;5110955;28;20767;-69
2022/05/17 01:33:32;;;;;;;0.40;0.28;;;13.80;99.90;;;;;;5109396;28;20397;-69
2022/05/17 01:35:58;;;;;;;0.57;0.57;;;13.80;99.90;;;;;;5110480;28;20808;-69
2022/05/17 01:38:24;;;;;;;0.40;0.20;;;13.90;99.90;;;;;;5110362;28;20538;-69
2022/05/17 01:40:50;;;;;;;1.00;0.35;;;13.90;99.90;;;;;;5110286;28;20381;-69
2022/05/17 01:43:16;;;;;;;0.40;0.20;;;13.90;99.90;;;;;;5110159;28;20429;-68
2022/05/17 01:45:41;;;;;;;0.40;0.30;;;13.90;99.90;;;;;;5109062;28;20420;-69
2022/05/17 01:48:07;;;;;;;0.40;0.30;;;13.80;99.90;;;;;;5110712;28;20371;-69
2022/05/17 01:50:34;;;;;;;0.40;0.20;;;13.80;99.90;;;;;;5109287;28;20377;-69
2022/05/17 01:53:00;;;;;;;0.40;0.30;;;13.80;99.90;;;;;;5109594;28;20604;-69
2022/05/17 01:55:25;;;;;;;0.40;0.20;;;13.80;99.90;;;;;;5109899;28;20438;-69
2022/05/17 01:57:51;;;;;;;0.40;0.20;;;13.80;99.90;;;;;;5110501;28;20429;-69
2022/05/17 02:00:19;;;;;;;0.40;0.40;;;13.80;99.90;;;;;;5110595;28;20425;-69
2022/05/17 02:02:45;;;;;;;0.40;0.40;;;13.80;99.90;;;;;;5106690;28;20415;-69
2022/05/17 02:05:11;;;;;;;0.40;0.20;;;13.80;99.90;;;;;;5110268;28;20781;-69
2022/05/17 02:07:36;;;;;;;0.40;0.20;;;13.90;99.90;;;;;;5109704;28;20419;-69
2022/05/17 02:10:03;;;;;;;0.40;0.20;;;13.90;99.90;;;;;;5109922;28;20400;-69
2022/05/17 02:12:29;;;;;;;0.40;0.30;;;14.00;99.90;;;;;;5108226;28;20431;-69
2022/05/17 02:14:55;;;;;;;0.40;0.30;;;14.00;99.90;;;;;;5102021;28;20390;-69
2022/05/17 02:17:21;;;;;;;0.40;0.23;;;13.90;99.90;;;;;;5090321;28;20513;-69
2022/05/17 02:19:47;;;;;;;0.40;0.30;;;13.90;99.90;;;;;;5093990;28;20382;-69
2022/05/17 02:22:13;;;;;;;0.40;0.30;;;14.10;99.90;;;;;;5110568;28;20369;-69
2022/05/17 02:24:38;;;;;;;0.40;0.20;;;14.00;99.90;;;;;;5108994;28;20399;-69
2022/05/17 02:27:04;;;;;;;0.40;0.20;;;14.10;99.90;;;;;;5109977;28;20432;-69
2022/05/17 02:29:30;;;;;;;0.40;0.30;;;14.10;99.90;;;;;;5109567;28;20387;-68
2022/05/17 02:31:57;;;;;;;0.40;0.40;;;14.10;99.90;;;;;;5110116;28;20395;-69
2022/05/17 02:34:22;;;;;;;0.40;0.20;;;14.10;99.90;;;;;;5110477;28;20405;-69
2022/05/17 02:36:48;;;;;;;0.40;0.30;;;14.00;99.90;;;;;;5109079;28;20375;-70
2022/05/17 02:39:14;;;;;;;0.40;0.20;;;14.00;99.90;;;;;;5110398;28;20750;-69
2022/05/17 02:41:40;;;;;;;0.40;0.20;;;14.00;99.90;;;;;;5112513;28;20368;-69
2022/05/17 02:44:06;;;;;;;0.40;0.30;;;14.00;99.90;;;;;;5110599;28;20420;-69
2022/05/17 02:46:32;;;;;;;0.40;0.20;;;13.90;99.90;;;;;;5112769;28;20384;-69
2022/05/17 02:49:01;;;;;;;0.70;0.60;;;13.90;99.90;;;;;;5113837;28;20380;-69
2022/05/17 02:51:27;;;;;;;0.40;0.20;;;13.80;99.90;;;;;;5113382;28;20384;-69
2022/05/17 02:53:53;;;;;;;0.40;0.20;;;13.90;99.90;;;;;;5113225;28;20467;-69
2022/05/17 02:56:19;;;;;;;0.40;0.20;;;14.00;99.90;;;;;;5113029;28;20400;-70
2022/05/17 02:58:45;;;;;;;0.40;0.20;;;14.00;99.90;;;;;;5112878;28;20369;-69
2022/05/17 03:01:10;;;;;;;0.40;0.40;;;14.00;99.90;;;;;;5113710;28;20721;-69
2022/05/17 03:03:41;;;;;;;0.40;0.20;;;14.00;99.90;;;;;;5112559;28;20740;-69
2022/05/17 03:06:08;;;;;;;1.60;1.10;;;14.00;99.90;;;;;;5113622;28;20463;-69
2022/05/17 03:08:34;;;;;;;0.40;0.20;;;14.00;99.90;;;;;;5112561;28;20381;-69
2022/05/17 03:11:00;;;;;;;0.40;0.20;;;13.90;99.90;;;;;;5113235;28;20376;-69
2022/05/17 03:13:26;;;;;;;0.40;0.20;;;13.90;99.90;;;;;;5113376;28;20392;-69
2022/05/17 03:15:51;;;;;;;0.50;0.45;;;13.90;99.90;;;;;;5094926;28;20382;-69
2022/05/17 03:18:17;;;;;;;0.80;0.80;;;13.80;99.90;;;;;;5092256;28;20866;-69
2022/05/17 03:20:43;;;;;;;0.40;0.20;;;13.80;99.90;;;;;;5098815;28;20388;-70
2022/05/17 03:23:09;;;;;;;0.40;0.20;;;13.80;99.90;;;;;;5094617;28;20393;-70
2022/05/17 03:25:35;;;;;;;0.40;0.20;;;13.70;99.90;;;;;;5094497;28;20415;-69
2022/05/17 03:28:01;;;;;;;0.70;0.50;;;13.70;99.90;;;;;;5112521;28;20426;-69
2022/05/17 03:30:27;;;;;;;0.40;0.20;;;13.80;99.90;;;;;;5112014;28;20380;-69
2022/05/17 03:32:53;;;;;;;0.70;0.60;;;13.70;99.90;;;;;;5103818;28;20479;-70
2022/05/17 03:35:19;;;;;;;0.80;0.80;;;13.70;99.90;;;;;;5092386;28;20846;-70
2022/05/17 03:37:44;;;;;;;0.60;0.60;;;13.90;99.90;;;;;;5073622;28;20382;-69
2022/05/17 03:40:11;;;;;;;0.40;0.20;;;13.80;99.90;;;;;;5093556;28;20382;-69
2022/05/17 03:42:38;;;;;;;0.40;0.20;;;13.80;99.90;;;;;;5106559;28;20918;-69
2022/05/17 03:45:05;;;;;;;0.40;0.20;;;13.80;99.90;;;;;;5105456;28;20394;-69
2022/05/17 03:47:31;;;;;;;0.60;0.60;;;13.70;99.90;;;;;;5105773;28;20403;-70
2022/05/17 03:49:57;;;;;;;0.40;0.20;;;13.60;99.90;;;;;;5103786;28;20900;-69
2022/05/17 03:52:27;;;;;;;0.40;0.20;;;13.70;99.90;;;;;;5102332;28;20500;-69
2022/05/17 03:54:57;;;;;;;0.40;0.20;;;13.70;99.90;;;;;;5098018;28;20435;-69
2022/05/17 03:57:26;;;;;;;0.40;0.20;;;13.70;99.90;;;;;;5104061;28;20479;-69
2022/05/17 03:59:53;;;;;;;0.40;0.40;;;13.70;99.90;;;;;;5104337;28;20969;-69
2022/05/17 04:02:19;;;;;;;0.40;0.20;;;13.70;99.90;;;;;;5110534;28;20388;-70
2022/05/17 04:04:45;;;;;;;0.40;0.20;;;13.70;99.90;;;;;;5089894;28;20880;-69
2022/05/17 04:07:11;;;;;;;0.60;0.57;;;13.70;99.90;;;;;;5110174;28;20475;-69
2022/05/17 04:09:37;;;;;;;1.00;0.70;;;13.80;99.90;;;;;;5111914;28;20748;-69
2022/05/17 04:12:04;;;;;;;0.40;0.20;;;13.70;99.90;;;;;;5111604;28;20403;-69
2022/05/17 04:14:29;;;;;;;0.40;0.20;;;13.70;99.90;;;;;;5111807;28;20439;-69
2022/05/17 04:16:55;;;;;;;0.40;0.20;;;13.70;99.90;;;;;;5111707;28;20400;-69
2022/05/17 04:19:21;;;;;;;0.40;0.20;;;13.80;99.90;;;;;;5112184;28;20848;-69
2022/05/17 04:21:48;;;;;;;0.40;0.30;;;13.80;99.90;;;;;;5111471;28;20435;-69
2022/05/17 04:24:14;;;;;;;0.40;0.20;;;13.80;99.90;;;;;;5111430;28;20434;-69
2022/05/17 04:26:41;;;;;;;0.40;0.40;;;13.80;99.90;;;;;;5111317;28;20860;-70
2022/05/17 04:29:08;;;;;;;0.40;0.20;;;13.80;99.90;;;;;;5110795;28;20400;-69
2022/05/17 04:31:33;;;;;;;0.40;0.30;;;13.80;99.90;;;;;;5107187;28;20392;-69
2022/05/17 04:34:00;;;;;;;0.40;0.20;;;13.90;99.90;;;;;;5107545;28;20436;-69
2022/05/17 04:36:25;;;;;;;0.40;0.20;;;14.00;99.90;;;;;;5108122;28;20389;-69
2022/05/17 04:38:51;;;;;;;0.40;0.20;;;14.00;99.90;;;;;;5109149;28;20403;-69
2022/05/17 04:41:17;;;;;;;0.40;0.20;;;14.00;99.90;;;;;;5109803;28;20738;-68
2022/05/17 04:43:43;;;;;;;0.40;0.35;;;14.00;99.90;;;;;;5091317;28;20492;-68
2022/05/17 04:49:07;;;;;;;0.40;0.40;;;14.20;99.90;;;;;;4919363;23;20423;-69
2022/05/17 04:51:34;;;;;;;0.40;0.20;;;14.20;99.90;;;;;;5092782;28;20436;-69
2022/05/17 04:54:00;;;;;;;0.40;0.20;;;14.30;99.90;;;;;;5106880;28;20432;-69
2022/05/17 04:56:26;;;;;;;0.40;0.20;;;14.30;99.90;;;;;;5101319;28;20386;-69
2022/05/17 04:58:52;;;;;;;0.40;0.20;;;14.40;99.90;;;;;;5098310;28;20377;-69
2022/05/17 05:01:18;;;;;;;0.40;0.30;;;14.40;99.90;;;;;;5098737;28;20497;-69
2022/05/17 05:03:43;;;;;;;0.40;0.20;;;14.50;99.90;;;;;;5108699;28;20388;-69
2022/05/17 05:06:09;;;;;;;0.40;0.20;;;14.60;99.90;;;;;;5096197;28;20404;-69
2022/05/17 05:11:57;;;;;;;1.40;0.90;;;14.70;99.90;;;;;;5094474;28;20888;-69
2022/05/17 05:14:23;;;;;;;0.40;0.30;;;14.80;99.90;;;;;;5096164;28;20413;-69
2022/05/17 05:16:49;;;;;;;0.40;0.25;;;14.80;99.90;;;;;;5092565;28;20422;-69
2022/05/17 05:19:15;;;;;;;0.40;0.30;;;14.90;99.90;;;;;;5099228;28;20384;-69
2022/05/17 05:21:40;;;;;;;0.40;0.20;;;14.90;99.90;;;;;;5102768;28;20452;-69
2022/05/17 05:24:07;;;;;;;0.40;0.20;;;15.00;99.90;;;;;;5098690;28;20482;-70
2022/05/17 05:26:34;;;;;;;0.50;0.50;;;15.00;99.90;;;;;;5093040;28;20458;-69
2022/05/17 05:28:59;;;;;;;0.40;0.20;;;15.10;99.90;;;;;;5102414;28;20404;-70
2022/05/17 05:31:25;;;;;;;0.40;0.20;;;15.10;99.90;;;;;;5089318;28;20406;-69
2022/05/17 05:33:51;;;;;;;0.50;0.50;;;15.10;99.90;;;;;;5098018;28;20404;-69
2022/05/17 05:36:16;;;;;;;0.40;0.20;;;15.20;99.90;;;;;;5101230;28;20439;-70
2022/05/17 05:38:42;;;;;;;0.40;0.30;;;15.20;99.90;;;;;;5104154;28;20894;-70
2022/05/17 05:41:11;;;;;;;0.40;0.40;;;15.40;99.90;;;;;;5100911;28;20854;-69
2022/05/17 05:43:37;;;;;;;0.40;0.20;;;15.50;99.90;;;;;;5101575;28;20400;-69
2022/05/17 05:46:03;;;;;;;0.40;0.20;;;15.50;99.90;;;;;;5090073;28;20930;-70
2022/05/17 05:48:29;;;;;;;0.40;0.20;;;15.60;99.90;;;;;;5098746;28;20421;-70
2022/05/17 05:50:54;;;;;;;0.40;0.20;;;15.70;99.90;;;;;;5089582;28;20406;-69
2022/05/17 05:53:20;;;;;;;0.40;0.20;;;15.80;99.90;;;;;;5096267;28;20404;-69
2022/05/17 05:55:50;;;;;;;0.40;0.20;;;15.90;99.90;;;;;;5105109;28;20445;-70
2022/05/17 05:58:17;;;;;;;0.40;0.20;;;16.00;99.90;;;;;;5098534;28;20400;-69
2022/05/17 06:00:43;;;;;;;0.70;0.70;;;16.00;99.90;;;;;;5107509;28;20951;-70
2022/05/17 06:03:09;;;;;;;0.40;0.30;;;16.10;99.90;;;;;;5090137;28;20390;-70
2022/05/17 06:05:36;;;;;;;0.50;0.40;;;16.20;99.90;;;;;;5104005;28;20531;-70
2022/05/17 06:08:03;;;;;;;0.40;0.20;;;16.20;99.90;;;;;;5095442;28;20392;-70
2022/05/17 06:10:29;;;;;;;0.40;0.20;;;16.30;99.90;;;;;;5101277;28;20414;-70
2022/05/17 06:12:55;;;;;;;0.40;0.20;;;16.40;99.90;;;;;;5082358;28;20834;-70
2022/05/17 06:15:20;;;;;;;0.40;0.20;;;16.50;99.90;;;;;;5092586;28;20485;-70
2022/05/17 06:17:46;;;;;;;0.60;0.50;;;16.60;99.90;;;;;;5107462;28;20429;-70
2022/05/17 06:20:14;;;;;;;0.40;0.30;;;16.70;99.90;;;;;;5107831;28;20479;-70
2022/05/17 06:22:41;;;;;;;0.40;0.20;;;16.70;99.90;;;;;;5104406;28;20392;-70
2022/05/17 06:25:08;;;;;;;1.70;1.40;;;16.70;99.90;;;;;;5083840;28;20877;-70
2022/05/17 06:27:34;;;;;;;0.40;0.20;;;16.80;99.90;;;;;;5100197;28;20395;-70
2022/05/17 06:29:59;;;;;;;0.40;0.20;;;16.80;99.90;;;;;;5113843;28;20388;-70
2022/05/17 06:32:25;;;;;;;0.40;0.20;;;16.80;99.90;;;;;;5113249;28;20897;-70
2022/05/17 06:34:51;;;;;;;0.40;0.30;;;16.90;99.90;;;;;;5108597;28;20403;-70
2022/05/17 06:37:18;;;;;;;0.40;0.20;;;16.90;99.90;;;;;;5113451;28;20372;-71
2022/05/17 06:39:43;;;;;;;0.40;0.20;;;16.90;99.90;;;;;;5113985;28;20364;-70
2022/05/17 06:42:09;;;;;;;0.40;0.30;;;17.00;99.90;;;;;;5108670;28;20409;-71
2022/05/17 06:44:39;;;;;;;0.40;0.30;;;17.00;99.90;;;;;;5112895;28;20467;-71
2022/05/17 06:47:06;;;;;;;1.10;1.00;;;17.10;99.90;;;;;;5109318;28;20449;-71
2022/05/17 06:49:35;;;;;;;0.40;0.25;;;17.10;99.90;;;;;;5112659;28;20517;-71
2022/05/17 06:52:02;;;;;;;0.40;0.20;;;17.20;99.90;;;;;;5113986;28;20771;-71
2022/05/17 06:54:28;;;;;;;0.40;0.40;;;17.30;99.90;;;;;;5112800;28;20388;-70
2022/05/17 06:56:53;;;;;;;0.40;0.30;;;17.30;99.90;;;;;;5112539;28;20395;-70
2022/05/17 06:59:19;;;;;;;0.40;0.20;;;17.40;99.90;;;;;;5106432;28;20796;-70
2022/05/17 07:01:49;;;;;;;0.40;0.20;;;17.40;99.90;;;;;;5111385;28;20364;-70
2022/05/17 07:04:15;;;;;;;0.40;0.20;;;17.50;99.90;;;;;;5107231;28;20376;-70
2022/05/17 07:06:40;;;;;;;0.40;0.30;;;17.70;99.90;;;;;;5101084;28;20390;-70
2022/05/17 07:09:06;;;;;;;0.40;0.20;;;17.80;99.90;;;;;;5106073;28;20392;-71
2022/05/17 07:14:17;;;;;;;0.40;0.20;;;18.20;99.90;;;;;;5104243;28;20453;-72
2022/05/17 07:16:42;;;;;;;0.40;0.20;;;18.20;99.90;;;;;;5112036;28;20424;-71
2022/05/17 07:19:08;;;;;;;0.40;0.20;;;18.10;99.90;;;;;;5112286;28;20461;-71
2022/05/17 07:21:34;;;;;;;0.40;0.20;;;18.30;99.90;;;;;;5110777;28;20396;-71
2022/05/17 07:23:59;;;;;;;0.40;0.20;;;18.40;99.90;;;;;;5113076;28;20939;-70
2022/05/17 07:26:25;;;;;;;0.40;0.30;;;18.40;99.90;;;;;;5103432;28;20808;-70
2022/05/17 07:28:51;;;;;;;0.40;0.30;;;18.50;99.90;;;;;;5099252;28;20399;-70
2022/05/17 07:31:16;;;;;;;0.40;0.30;;;18.60;99.90;;;;;;5105323;28;20475;-70
2022/05/17 07:33:43;;;;;;;0.40;0.30;;;18.70;99.90;;;;;;5107504;28;20408;-71
2022/05/17 07:36:09;;;;;;;0.40;0.20;;;18.60;99.90;;;;;;5107201;28;20392;-70
2022/05/17 07:38:36;;;;;;;0.40;0.20;;;18.70;99.90;;;;;;5104200;28;20392;-71
2022/05/17 07:41:03;;;;;;;0.40;0.30;;;18.90;99.90;;;;;;5106549;28;20373;-71
2022/05/17 07:43:29;;;;;;;0.40;0.20;;;18.90;99.90;;;;;;5093703;28;20440;-70
2022/05/17 07:45:55;;;;;;;0.40;0.20;;;18.90;99.90;;;;;;5088944;28;20494;-70
2022/05/17 07:48:22;;;;;;;0.40;0.20;;;19.00;99.90;;;;;;5103803;28;20385;-71
2022/05/17 07:50:49;;;;;;;0.40;0.20;;;18.90;99.90;;;;;;5091325;28;20410;-70
2022/05/17 07:53:17;;;;;;;0.77;0.68;;;19.00;99.90;;;;;;5099765;28;20475;-71
2022/05/17 07:55:45;;;;;;;0.70;0.40;;;19.00;99.90;;;;;;5110852;28;20407;-71
2022/05/17 07:58:12;;;;;;;0.40;0.30;;;19.00;99.90;;;;;;5097866;28;20451;-70
2022/05/17 08:00:39;;;;;;;0.40;0.20;;;19.10;99.90;;;;;;5095358;28;20476;-71
2022/05/17 08:03:06;;;;;;;0.40;0.20;;;19.10;99.90;;;;;;5102208;28;20398;-71
2022/05/17 08:05:32;;;;;;;0.40;0.20;;;19.00;99.90;;;;;;5094229;28;20901;-71
2022/05/17 08:07:58;;;;;;;0.60;0.60;;;19.20;99.90;;;;;;5078411;28;20388;-71
2022/05/17 08:10:24;;;;;;;0.40;0.20;;;19.10;99.90;;;;;;5090632;28;20880;-71
2022/05/17 08:12:51;;;;;;;0.40;0.20;;;19.30;99.90;;;;;;5097740;28;20409;-71
2022/05/17 08:15:19;;;;;;;0.50;0.50;;;19.40;99.90;;;;;;5094024;28;20399;-70
2022/05/17 08:17:44;;;;;;;0.40;0.20;;;19.60;99.90;;;;;;5105907;28;20388;-70
2022/05/17 08:20:11;;;;;;;0.40;0.20;;;19.60;99.90;;;;;;5107727;28;20407;-71
2022/05/17 08:22:41;;;;;;;0.40;0.20;;;19.60;99.90;;;;;;5101655;28;20840;-71
2022/05/17 08:27:57;;;;;;;0.40;0.20;;;19.60;99.90;;;;;;5106559;28;20476;-71
2022/05/17 08:30:25;;;;;;;0.40;0.20;;;20.10;99.90;;;;;;5099936;28;20456;-71
2022/05/17 08:33:15;;;;;;;0.40;0.20;;;20.00;99.90;;;;;;5107847;28;20415;-71
2022/05/17 08:35:49;;;;;;;0.40;0.20;;;20.00;99.90;;;;;;5109872;28;20448;-71
2022/05/17 08:38:27;;;;;;;0.40;0.20;;;20.00;99.90;;;;;;5109093;28;20793;-71
2022/05/17 08:41:11;;;;;;;0.40;0.20;;;20.30;99.90;;;;;;5110188;28;20840;-71
2022/05/17 08:44:00;;;;;;;1.80;0.70;;;20.30;99.90;;;;;;5109385;28;20452;-71
2022/05/17 08:46:50;;;;;;;0.40;0.20;;;20.40;99.90;;;;;;5098381;28;20389;-71
2022/05/17 08:49:23;;;;;;;0.40;0.20;;;20.50;99.90;;;;;;5090112;28;20382;-71
2022/05/17 08:51:54;;;;;;;0.40;0.20;;;20.60;99.90;;;;;;5024563;28;1889386;-71
2022/05/17 08:54:32;;;;;;;1.70;1.60;;;20.70;99.90;;;;;;5100309;28;20433;-71
2022/05/17 08:57:22;;;;;;;0.40;0.30;;;20.80;99.90;;;;;;5107661;28;20783;-71
2022/05/17 08:59:48;;;;;;;1.20;0.70;;;20.90;99.90;;;;;;5102545;28;20890;-72
2022/05/17 09:02:24;;;;;;;0.40;0.20;;;21.00;99.90;;;;;;5109643;28;20412;-71
2022/05/17 09:04:59;;;;;;;0.40;0.30;;;21.10;99.90;;;;;;5088554;28;20781;-71
2022/05/17 09:07:56;;;;;;;0.40;0.20;;;21.20;99.90;;;;;;5100446;28;20428;-71
2022/05/17 09:10:39;;;;;;;0.40;0.20;;;21.10;99.90;;;;;;5090516;28;20493;-71
2022/05/17 09:13:49;;;;;;;0.40;0.30;;;21.00;99.90;;;;;;5090104;28;20398;-71
2022/05/17 09:16:15;;;;;;;0.40;0.30;;;21.30;99.90;;;;;;5082316;28;20412;-72
2022/05/17 09:18:45;;;;;;;0.40;0.30;;;21.30;99.90;;;;;;5102252;28;20434;-71
2022/05/17 09:21:28;;;;;;;0.60;0.60;;;21.40;99.90;;;;;;5101204;28;20483;-71
2022/05/17 09:23:57;;;;;;;0.40;0.40;;;21.40;99.90;;;;;;5110451;28;20445;-72
2022/05/17 09:26:23;;;;;;;0.40;0.27;;;21.40;99.90;;;;;;5106067;28;20484;-72
2022/05/17 09:28:55;;;;;;;0.40;0.20;;;21.60;99.90;;;;;;5090131;28;20382;-72
2022/05/17 09:31:27;;;;;;;0.40;0.30;;;21.60;99.90;;;;;;5090174;28;20386;-71
2022/05/17 09:33:53;;;;;;;0.40;0.20;;;21.70;99.90;;;;;;5089954;28;20431;-70
2022/05/17 09:36:44;;;;;;;0.40;0.20;;;21.70;99.90;;;;;;5089743;28;20386;-71
2022/05/17 09:39:11;;;;;;;0.40;0.30;;;21.70;99.90;;;;;;5089530;28;20378;-74
2022/05/17 09:41:40;;;;;;;0.40;0.20;;;21.70;99.90;;;;;;5101456;28;20400;-72
2022/05/17 09:44:12;;;;;;;0.40;0.20;;;21.70;99.90;;;;;;5099236;28;20410;-72
2022/05/17 09:46:47;;;;;;;0.45;0.35;;;21.60;99.90;;;;;;5098121;28;20392;-73
2022/05/17 09:52:32;;;;;;;0.40;0.40;;;22.00;99.90;;;;;;5102661;28;20431;-71
2022/05/17 09:55:21;;;;;;;0.40;0.20;;;22.20;99.90;;;;;;5111546;28;20525;-71
2022/05/17 09:57:55;;;;;;;0.40;0.30;;;22.30;99.90;;;;;;5077909;28;20420;-71
2022/05/17 10:00:50;;;;;;;0.40;0.20;;;22.40;99.90;;;;;;5099012;28;20900;-71
2022/05/17 10:03:15;;;;;;;0.80;0.80;;;22.40;99.90;;;;;;5095018;28;20901;-72
2022/05/17 10:05:44;;;;;;;0.40;0.30;;;22.40;99.90;;;;;;5103734;28;20479;-71
2022/05/17 10:08:10;;;;;;;0.40;0.30;;;22.60;99.90;;;;;;5112472;28;20812;-72
2022/05/17 10:10:43;;;;;;;0.40;0.20;;;22.50;99.90;;;;;;5112413;28;20412;-72
2022/05/17 10:13:12;;;;;;;0.40;0.30;;;22.40;99.90;;;;;;5114120;28;20400;-71
2022/05/17 10:15:41;;;;;;;0.50;0.47;;;22.40;99.90;;;;;;5110651;28;20389;-72
2022/05/17 10:18:19;;;;;;;0.40;0.30;;;22.60;99.90;;;;;;5099548;28;20390;-72
2022/05/17 10:20:49;;;;;;;8.70;0.80;;;22.80;99.30;;;;;;5095256;28;20392;-72
2022/05/17 10:23:44;;;;;;;0.40;0.30;;;22.80;99.20;;;;;;5102834;28;20390;-72
2022/05/17 10:26:15;;;;;;;0.40;0.20;;;22.90;99.30;;;;;;5092070;28;20422;-72
2022/05/17 10:28:43;;;;;;;0.40;0.30;;;23.00;99.90;;;;;;5110317;28;20372;-72
2022/05/17 10:31:33;;;;;;;0.40;0.30;;;23.10;99.90;;;;;;5112623;28;20863;-72
2022/05/17 10:34:29;;;;;;;0.40;0.20;;;23.00;99.90;;;;;;5097718;28;20913;-71
2022/05/17 10:36:59;;;;;;;0.40;0.30;;;23.00;99.90;;;;;;5092515;28;20468;-71
2022/05/17 10:39:31;;;;;;;0.40;0.20;;;23.10;99.70;;;;;;5098703;28;20398;-71
2022/05/17 10:41:57;;;;;;;0.40;0.30;;;23.20;99.80;;;;;;5094940;28;20414;-72
2022/05/17 10:44:37;;;;;;;0.40;0.40;;;23.40;99.90;;;;;;5079097;28;20846;-71
2022/05/17 10:47:11;;;;;;;0.40;0.20;;;23.40;98.70;;;;;;5104055;28;20835;-71
2022/05/17 10:49:57;;;;;;;0.40;0.20;;;23.40;98.70;;;;;;5097708;28;20925;-71
2022/05/17 10:52:52;;;;;;;0.40;0.30;;;23.50;98.40;;;;;;5094973;28;20413;-72
2022/05/17 10:55:28;;;;;;;0.40;0.20;;;23.50;99.10;;;;;;5099623;28;20409;-72
2022/05/17 10:58:15;;;;;;;0.40;0.20;;;23.80;97.70;;;;;;5103188;28;20394;-71
2022/05/17 11:00:47;;;;;;;1.10;0.60;;;23.70;95.70;;;;;;5100340;28;20392;-72
2022/05/17 11:03:24;;;;;;;0.40;0.20;;;23.60;96.20;;;;;;5099832;28;20454;-72
2022/05/17 11:05:50;;;;;;;0.50;0.43;;;23.80;97.00;;;;;;5112041;28;20399;-72
2022/05/17 11:08:45;;;;;;;0.40;0.30;;;24.20;95.90;;;;;;5109886;28;20431;-73
2022/05/17 11:11:45;;;;;;;0.40;0.20;;;24.00;94.80;;;;;;5096813;28;20564;-72
2022/05/17 11:14:29;;;;;;;0.40;0.20;;;24.20;93.60;;;;;;5102110;28;20420;-73
2022/05/17 11:17:08;;;;;;;0.40;0.20;;;24.20;94.70;;;;;;5102190;28;20396;-72
2022/05/17 11:19:48;;;;;;;0.40;0.30;;;24.30;94.20;;;;;;5097378;28;20415;-72
2022/05/17 11:22:24;;;;;;;3.10;0.70;;;24.60;93.10;;;;;;5102551;28;20416;-69
2022/05/17 11:25:07;;;;;;;0.40;0.30;;;24.90;91.30;;;;;;5100628;28;20471;-71
2022/05/17 11:28:07;;;;;;;0.40;0.20;;;25.10;92.20;;;;;;5098374;28;20437;-73
2022/05/17 11:30:44;;;;;;;0.40;0.30;;;24.90;91.60;;;;;;5099728;28;20416;-72
2022/05/17 11:33:30;;;;;;;0.40;0.30;;;25.20;91.70;;;;;;5097791;28;20439;-71
2022/05/17 11:36:05;;;;;;;0.50;0.30;;;25.60;90.40;;;;;;5101477;28;20462;-71
2022/05/17 11:38:36;;;;;;;0.50;0.50;;;26.70;87.20;;;;;;5102156;28;20464;-72
2022/05/17 11:41:23;;;;;;;0.40;0.20;;;27.40;84.70;;;;;;5095809;28;20446;-71
2022/05/17 11:43:54;;;;;;;0.40;0.20;;;27.20;80.10;;;;;;5101168;28;20461;-71
2022/05/17 11:46:30;;;;;;;0.40;0.20;;;27.10;77.00;;;;;;5102300;28;20518;-71
2022/05/17 11:48:58;;;;;;;0.40;0.30;;;26.10;75.70;;;;;;5101527;28;20445;-71
2022/05/17 11:51:33;;;;;;;0.40;0.20;;;26.60;82.80;;;;;;5101153;28;20402;-69
2022/05/17 11:54:00;;;;;;;0.40;0.30;;;27.70;76.00;;;;;;5100407;28;20488;-71
2022/05/17 11:56:25;;;;;;;0.40;0.20;;;28.60;76.20;;;;;;5099868;28;20395;-71
2022/05/17 11:58:58;;;;;;;0.40;0.20;;;28.30;73.60;;;;;;5098174;28;20863;-72
2022/05/17 12:01:29;;;;;;;0.40;0.20;;;27.40;74.80;;;;;;5100577;28;20502;-72
2022/05/17 12:04:01;;;;;;;0.40;0.20;;;28.70;80.10;;;;;;5100994;28;20467;-72
2022/05/17 12:06:32;;;;;;;0.40;0.20;;;28.90;73.80;;;;;;5101218;28;20425;-71
2022/05/17 12:08:59;;;;;;;0.40;0.20;;;28.90;68.70;;;;;;5099409;28;20409;-72
2022/05/17 12:11:34;;;;;;;0.40;0.20;;;29.70;63.60;;;;;;5098514;28;20394;-73
2022/05/17 12:14:23;;;;;;;0.40;0.20;;;29.20;61.40;;;;;;5108954;28;20391;-71
2022/05/17 12:17:02;;;;;;;0.40;0.20;;;29.30;63.50;;;;;;5093374;28;20376;-71
2022/05/17 12:19:38;;;;;;;0.40;0.20;;;28.20;70.80;;;;;;5112291;28;20782;-71
2022/05/17 12:22:28;;;;;;;0.40;0.20;;;28.20;69.30;;;;;;5111974;28;20380;-71
2022/05/17 12:25:15;;;;;;;0.40;0.20;;;28.90;71.50;;;;;;5110581;28;20379;-71
2022/05/17 12:27:43;;;;;;;0.40;0.20;;;29.00;73.50;;;;;;5109886;28;20410;-72
2022/05/17 12:33:34;;;;;;;0.40;0.20;;;28.10;65.30;;;;;;5111480;28;20438;-71
2022/05/17 12:36:25;;;;;;;1.40;0.70;;;28.50;64.90;;;;;;5110919;28;20419;-72
2022/05/17 12:44:39;;;;;;;0.57;0.38;;;29.30;64.00;;;;;;5090322;28;20412;-73
2022/05/17 12:47:15;;;;;;;0.40;0.20;;;28.10;65.10;;;;;;5107718;28;20384;-72
2022/05/17 12:49:42;;;;;;;0.40;0.20;;;27.20;63.60;;;;;;5110395;28;20426;-71
2022/05/17 12:52:19;;;;;;;0.40;0.20;;;27.80;70.10;;;;;;5111430;28;20387;-71
2022/05/17 12:54:49;;;;;;;0.60;0.60;;;28.20;68.30;;;;;;5109976;28;20396;-71
2022/05/17 12:57:16;;;;;;;0.40;0.20;;;28.20;66.40;;;;;;5106990;28;20905;-71
2022/05/17 12:59:42;;;;;;;0.40;0.20;;;27.90;65.40;;;;;;5090218;28;20384;-71
2022/05/17 13:02:08;;;;;;;0.40;0.20;;;28.20;66.10;;;;;;5090930;28;20457;-71
2022/05/17 13:04:37;;;;;;;0.40;0.20;;;28.80;70.40;;;;;;5090168;28;20374;-73
2022/05/17 13:07:13;;;;;;;0.40;0.20;;;29.10;65.00;;;;;;5090529;28;20902;-71
2022/05/17 13:09:57;;;;;;;0.40;0.20;;;28.40;65.60;;;;;;5089962;28;20889;-71
2022/05/17 13:12:25;;;;;;;0.40;0.20;;;29.20;66.20;;;;;;5090629;28;20481;-71
2022/05/17 13:14:51;;;;;;;0.40;0.40;;;27.90;63.80;;;;;;5089741;28;20469;-71
2022/05/17 13:17:28;;;;;;;0.40;0.20;;;28.40;67.30;;;;;;5090634;28;20854;-71
2022/05/17 13:19:59;;;;;;;0.40;0.20;;;28.90;62.80;;;;;;5090036;28;20417;-71
2022/05/17 13:22:25;;;;;;;0.40;0.20;;;29.70;61.30;;;;;;5091598;28;20739;-71
2022/05/17 13:25:00;;;;;;;0.40;0.30;;;29.40;61.60;;;;;;5094705;28;20396;-71
2022/05/17 13:27:36;;;;;;;0.40;0.20;;;29.70;62.40;;;;;;5110916;28;20384;-71
2022/05/17 13:30:27;;;;;;;0.40;0.20;;;29.20;63.00;;;;;;5110763;28;20458;-71